createdAt,value
2022-09-26T00:03:20.476Z,55.64
2022-09-26T00:08:22.226Z,55.75
2022-09-26T00:13:24.521Z,55.52
2022-09-26T00:18:26.382Z,55.65
2022-09-26T00:23:27.836Z,55.80
2022-09-26T00:28:29.596Z,55.65
2022-09-26T00:33:31.288Z,55.74
2022-09-26T00:38:33.736Z,55.27
2022-09-26T00:43:41.695Z,55.55
2022-09-26T00:48:48.907Z,55.48
2022-09-26T00:53:53.262Z,55.57
2022-09-26T00:59:08.546Z,55.44
2022-09-26T01:04:12.400Z,55.46
2022-09-26T01:09:15.167Z,55.45
2022-09-26T01:14:17.221Z,55.47
2022-09-26T01:19:40.227Z,55.71
2022-09-26T01:25:14.291Z,55.49
2022-09-26T01:30:29.192Z,55.56
2022-09-26T01:35:46.011Z,55.68
2022-09-26T01:41:02.924Z,55.49
2022-09-26T01:46:21.139Z,55.69
2022-09-26T01:51:32.750Z,55.72
2022-09-26T01:56:38.518Z,55.84
2022-09-26T02:01:44.961Z,55.88
2022-09-26T02:06:59.469Z,56.02
2022-09-26T02:12:06.673Z,56.15
2022-09-26T02:17:12.876Z,56.44
2022-09-26T02:22:14.444Z,56.48
2022-09-26T02:27:15.955Z,56.13
2022-09-26T02:32:23.501Z,56.40
2022-09-26T02:37:26.057Z,56.39
2022-09-26T02:42:36.614Z,56.41
2022-09-26T02:48:18.803Z,56.46
2022-09-26T02:53:41.705Z,55.93
2022-09-26T02:58:59.002Z,55.93
2022-09-26T03:04:08.454Z,55.80
2022-09-26T03:09:12.408Z,55.95
2022-09-26T03:14:17.996Z,55.82
2022-09-26T03:19:39.551Z,55.66
2022-09-26T03:24:42.976Z,55.59
2022-09-26T03:29:44.613Z,55.53
2022-09-26T03:34:52.245Z,55.61
2022-09-26T03:39:53.752Z,55.51
2022-09-26T03:45:12.820Z,55.45
2022-09-26T03:50:36.766Z,55.43
2022-09-26T03:55:38.413Z,55.38
2022-09-26T04:00:40.101Z,55.74
2022-09-26T04:05:43.559Z,55.38
2022-09-26T04:10:46.079Z,55.39
2022-09-26T04:15:56.048Z,55.41
2022-09-26T04:21:27.101Z,55.51
2022-09-26T04:26:28.952Z,55.43
2022-09-26T04:31:30.597Z,55.66
2022-09-26T04:36:40.774Z,55.33
2022-09-26T04:41:42.546Z,55.57
2022-09-26T04:46:44.495Z,55.32
2022-09-26T04:51:47.734Z,55.44
2022-09-26T04:56:49.798Z,55.34
2022-09-26T05:01:51.423Z,55.38
2022-09-26T05:06:59.307Z,55.27
2022-09-26T05:12:06.760Z,55.56
2022-09-26T05:17:10.146Z,55.22
2022-09-26T05:22:12.132Z,55.24
2022-09-26T05:27:15.266Z,55.11
2022-09-26T05:32:17.612Z,55.15
2022-09-26T05:37:19.313Z,55.11
2022-09-26T05:42:20.905Z,54.93
2022-09-26T05:47:23.896Z,54.83
2022-09-26T05:52:28.228Z,55.11
2022-09-26T05:57:29.774Z,55.09
2022-09-26T06:02:31.825Z,55.12
2022-09-26T06:07:50.548Z,55.08
2022-09-26T06:13:08.376Z,54.92
2022-09-26T06:18:27.845Z,54.97
2022-09-26T06:23:31.230Z,54.88
2022-09-26T06:28:33.264Z,54.96
2022-09-26T06:33:34.778Z,54.70
2022-09-26T06:38:53.490Z,54.78
2022-09-26T06:43:56.776Z,54.83
2022-09-26T06:49:04.408Z,54.69
2022-09-26T06:54:23.198Z,54.72
2022-09-26T06:59:25.058Z,54.55
2022-09-26T07:04:35.925Z,54.84
2022-09-26T07:09:48.430Z,54.69
2022-09-26T07:15:09.918Z,54.46
2022-09-26T07:20:15.931Z,54.57
2022-09-26T07:25:47.298Z,54.31
2022-09-26T07:30:49.546Z,54.15
2022-09-26T07:36:04.550Z,54.09
2022-09-26T07:41:10.889Z,54.02
2022-09-26T07:46:32.432Z,53.76
2022-09-26T07:51:34.574Z,53.59
2022-09-26T07:56:42.657Z,53.80
2022-09-26T08:02:34.089Z,53.24
2022-09-26T08:07:38.365Z,53.04
2022-09-26T08:12:48.506Z,52.79
2022-09-26T08:18:19.995Z,52.85
2022-09-26T08:23:21.997Z,52.83
2022-09-26T08:28:44.016Z,52.15
2022-09-26T08:33:47.731Z,51.77
2022-09-26T08:38:49.951Z,51.41
2022-09-26T08:44:46.613Z,51.42
2022-09-26T08:50:33.201Z,50.90
2022-09-26T08:55:40.693Z,50.62
2022-09-26T09:00:42.633Z,50.42
2022-09-26T09:05:56.151Z,50.39
2022-09-26T09:11:19.482Z,49.56
2022-09-26T09:16:27.992Z,49.43
2022-09-26T09:22:21.588Z,48.82
2022-09-26T09:27:52.733Z,48.57
2022-09-26T09:32:59.335Z,48.43
2022-09-26T09:38:18.466Z,48.38
2022-09-26T09:43:37.516Z,48.14
2022-09-26T09:48:39.230Z,48.03
2022-09-26T09:54:13.724Z,47.22
2022-09-26T09:59:45.755Z,46.96
2022-09-26T10:05:00.878Z,46.27
2022-09-26T10:10:02.627Z,45.97
2022-09-26T10:15:27.130Z,46.12
2022-09-26T10:21:02.523Z,46.33
2022-09-26T10:26:07.683Z,45.67
2022-09-26T10:31:11.864Z,45.64
2022-09-26T10:36:40.144Z,45.17
2022-09-26T10:41:45.068Z,44.85
2022-09-26T10:46:49.552Z,44.84
2022-09-26T10:52:27.846Z,44.75
2022-09-26T10:57:40.820Z,44.61
2022-09-26T11:02:47.064Z,44.22
2022-09-26T11:07:52.251Z,44.38
2022-09-26T11:13:22.606Z,44.45
2022-09-26T11:18:40.680Z,44.44
2022-09-26T11:23:53.951Z,43.63
2022-09-26T11:29:06.190Z,43.45
2022-09-26T11:34:26.650Z,43.33
2022-09-26T11:40:09.904Z,43.40
2022-09-26T11:45:33.672Z,43.10
2022-09-26T11:51:37.069Z,43.14
2022-09-26T11:57:08.531Z,42.91
2022-09-26T12:02:33.197Z,42.46
2022-09-26T12:08:19.142Z,42.33
2022-09-26T12:13:48.291Z,41.92
2022-09-26T12:19:15.592Z,41.53
2022-09-26T12:24:28.756Z,41.88
2022-09-26T12:30:02.702Z,42.08
2022-09-26T12:35:21.137Z,42.37
2022-09-26T12:40:33.535Z,41.54
2022-09-26T12:46:03.025Z,41.62
2022-09-26T12:51:22.256Z,41.74
2022-09-26T12:56:46.334Z,41.46
2022-09-26T13:02:02.900Z,41.60
2022-09-26T13:07:20.646Z,41.78
2022-09-26T13:12:41.222Z,41.68
2022-09-26T13:17:47.732Z,41.59
2022-09-26T13:22:55.875Z,41.27
2022-09-26T13:28:05.134Z,41.56
2022-09-26T13:33:18.387Z,41.51
2022-09-26T13:38:40.898Z,41.65
2022-09-26T13:43:56.720Z,41.38
2022-09-26T13:49:25.145Z,41.59
2022-09-26T13:54:46.783Z,41.90
2022-09-26T13:59:53.086Z,41.75
2022-09-26T14:05:03.636Z,41.33
2022-09-26T14:10:18.443Z,41.32
2022-09-26T14:15:25.944Z,41.00
2022-09-26T14:20:31.767Z,40.74
2022-09-26T14:25:45.354Z,40.85
2022-09-26T14:31:22.165Z,40.59
2022-09-26T14:36:26.895Z,39.42
2022-09-26T14:41:31.980Z,39.62
2022-09-26T14:46:35.595Z,39.71
2022-09-26T14:51:41.287Z,39.18
2022-09-26T14:56:49.483Z,39.00
2022-09-26T15:01:53.201Z,38.65
2022-09-26T15:07:00.242Z,38.08
2022-09-26T15:12:08.799Z,38.35
2022-09-26T15:17:23.393Z,38.77
2022-09-26T15:22:29.347Z,38.25
2022-09-26T15:27:31.699Z,38.02
2022-09-26T15:32:33.589Z,37.43
2022-09-26T15:37:36.279Z,37.86
2022-09-26T15:42:56.327Z,37.59
2022-09-26T15:48:00.307Z,37.92
2022-09-26T15:58:06.602Z,37.60
2022-09-26T16:04:03.576Z,37.60
2022-09-26T16:09:16.695Z,37.54
2022-09-26T16:14:26.540Z,37.58
2022-09-26T16:19:43.232Z,37.17
2022-09-26T16:24:44.709Z,37.38
2022-09-26T16:29:51.826Z,37.57
2022-09-26T16:34:53.297Z,37.47
2022-09-26T16:39:58.965Z,37.81
2022-09-26T16:45:04.751Z,37.88
2022-09-26T16:50:27.011Z,38.35
2022-09-26T16:55:32.724Z,38.49
2022-09-26T17:00:53.477Z,38.63
2022-09-26T17:05:56.841Z,38.88
2022-09-26T17:11:03.682Z,39.07
2022-09-26T17:16:06.786Z,39.34
2022-09-26T17:21:08.700Z,39.45
2022-09-26T17:26:19.901Z,39.37
2022-09-26T17:31:21.615Z,39.51
2022-09-26T17:36:28.427Z,39.83
2022-09-26T17:41:32.588Z,40.17
2022-09-26T17:46:37.391Z,39.99
2022-09-26T17:51:39.716Z,40.13
2022-09-26T17:56:41.237Z,40.41
2022-09-26T18:01:42.783Z,40.59
2022-09-26T18:06:44.723Z,40.86
2022-09-26T18:11:55.603Z,40.77
2022-09-26T18:16:58.159Z,40.79
2022-09-26T18:21:59.738Z,40.95
2022-09-26T18:27:07.102Z,40.91
2022-09-26T18:32:20.192Z,41.16
2022-09-26T18:37:21.848Z,41.06
2022-09-26T18:42:24.371Z,41.16
2022-09-26T18:47:26.394Z,41.33
2022-09-26T18:52:29.101Z,41.19
2022-09-26T18:57:49.345Z,41.37
2022-09-26T19:02:51.075Z,41.73
2022-09-26T19:07:53.136Z,41.24
2022-09-26T19:12:55.469Z,41.51
2022-09-26T19:17:57.113Z,41.80
2022-09-26T19:22:58.676Z,41.56
2022-09-26T19:28:00.279Z,41.50
2022-09-26T19:33:01.784Z,41.69
2022-09-26T19:38:16.115Z,42.01
2022-09-26T19:43:18.032Z,42.01
2022-09-26T19:48:22.096Z,42.05
2022-09-26T19:53:23.988Z,42.03
2022-09-26T19:58:27.889Z,42.01
2022-09-26T20:03:33.707Z,42.10
2022-09-26T20:08:35.269Z,42.28
2022-09-26T20:13:55.635Z,42.37
2022-09-26T20:18:57.834Z,42.65
2022-09-26T20:24:02.739Z,43.11
2022-09-26T20:29:04.238Z,43.59
2022-09-26T20:34:05.713Z,43.70
2022-09-26T20:39:13.499Z,44.08
2022-09-26T20:44:27.249Z,44.19
2022-09-26T20:49:34.258Z,44.19
2022-09-26T20:54:36.221Z,44.62
2022-09-26T20:59:37.797Z,44.64
2022-09-26T21:04:39.310Z,45.00
2022-09-26T21:09:41.775Z,45.05
2022-09-26T21:14:43.534Z,45.03
2022-09-26T21:19:45.508Z,45.08
2022-09-26T21:25:14.481Z,45.04
2022-09-26T21:30:16.995Z,45.05
2022-09-26T21:35:19.906Z,44.87
2022-09-26T21:40:26.100Z,44.74
2022-09-26T21:45:27.876Z,44.98
2022-09-26T21:50:29.646Z,44.91
2022-09-26T21:55:36.348Z,44.79
2022-09-26T22:00:37.817Z,44.93
2022-09-26T22:05:39.327Z,44.84
2022-09-26T22:10:40.995Z,45.07
2022-09-26T22:15:42.515Z,45.09
2022-09-26T22:20:44.010Z,45.11
2022-09-26T22:25:49.667Z,45.45
2022-09-26T22:30:51.353Z,45.40
2022-09-26T22:35:52.862Z,45.43
2022-09-26T22:40:59.690Z,45.56
2022-09-26T22:46:09.700Z,45.58
2022-09-26T22:51:11.652Z,45.72
2022-09-26T22:56:15.096Z,45.65
2022-09-26T23:01:24.741Z,45.45
2022-09-26T23:06:26.968Z,45.76
2022-09-26T23:11:28.702Z,45.74
2022-09-26T23:16:30.316Z,45.72
2022-09-26T23:21:31.857Z,45.88
2022-09-26T23:26:33.460Z,45.65
2022-09-26T23:31:35.572Z,45.75
2022-09-26T23:36:37.037Z,45.72
2022-09-26T23:41:38.550Z,45.83
2022-09-26T23:46:40.151Z,45.75
2022-09-26T23:51:42.356Z,46.18
2022-09-26T23:56:43.855Z,45.90
